Terminal Aerodrome Forecast
Issued by NWS

Home | Current Version | Previous Version | Text Only | Print | Product List | Glossary On
Versions: 1 2 3 4 5 6 7 8 9 10 11 12 13 14 15
000
FTUS41 KPBZ 162324
TAFBVI
TAF
KBVI 162324Z 1700/1724 VRB03KT P6SM SCT060
     FM171400 18005KT P6SM BKN100
     FM171800 20005KT P6SM VCSH BKN050
     FM172100 18005KT P6SM VCTS BKN035CB
      AMD NOT SKED 1702/1712=

USA.gov is the U.S. government's official web portal to all federal, state and local government web resources and services.